Aérodrome :
LOGIN :

S'inscrire | Disclaimer

   EN    FR    IT 

 










Légende :    VFR   VFR Marginal   IFR   IFR Intensif   IFR Très Intensif
Visi : 
Plafond : 
>= 8 km
>= 3000ft
5 à 8 km
1000 à 3000 ft
1500m à 5 km
500 à 1000 ft
800 à 1500m
200 à 500 ft
< 800m
< 200 ft
Symboles :   Orages  Brouillard  Fortes neiges  Fortes précipitations  Vent > 20 kt
SIGMETs :   Divers  Orages  Givrage  Turbulence  Onde Orograph.  Cendres Volcan.






- Altitude de l'aérodrome : 1910 ft
- Code IATA : RDZ


LFCR - Rodez

DERNIER METAR :
  • 290500Z AUTO 12004KT 0750 R31/1100U FG FEW005 12/12 Q1018 TEMPO VV///

METARs EXPIRÉS :
  • 290430Z AUTO 14002KT 0900 0500 R31/1300N FG NSC 11/11 Q1019 TEMPO 0600 FG VV///
  • 290400Z AUTO 13002KT 0800 R31/1200U FG NSC 12/11 Q1019 TEMPO 4000 BR
  • 290330Z AUTO 20001KT 9999 SCT009 12/11 Q1019 TEMPO 4000 BR
  • 290300Z AUTO 21001KT 9999 SCT009 12/11 Q1019 TEMPO 4000 BR
  • 290230Z AUTO 00000KT 4200 1200 R31/P2000 BR NSC 12/12 Q1019 NOSIG

TAF AMD TAF LFCR
Valide du 29 à 04h jusqu'au 30 à 00h UTC


290416Z 2904/2924 27003KT CAVOK
TEMPO 2904/2907 0600 FG VV///



MET'MAP, la Météo Aéronautique d'un coup d'oeil ! - Copyright ORBIFLY Décembre 2007 - Disclaimer

ORBIFLY MET'MAP TEAM :

Programmation & Développement : Alexandra Zaïnal
Sur une idée originale de : Baudouin d'Aumeries
Assistance à la programmation : Marc-Olivier Méhu
Soutien technique & logistique : Manuel Goepfert

Contact : metmap@orbifly.com




SOURCES & CREDITS :

   NOAA